Time;durP1;ratioP1;P1;durP2;ratioP2;P2;SDS_P1;SDS_P2;PMS_P1;PMS_P2;Temp;Humidity;BMP_temperature;BMP_pressure;BME280_temperature;BME280_humidity;BME280_pressure;Samples;Min_cycle;Max_cycle;Signal;HPM_P1;HPM_P2
2023/01/29 00:01:29;;;;;;;7.82;5.60;;;3.90;58.00;;;;;;5015909;28;20098;-64
2023/01/29 00:03:55;;;;;;;8.07;6.10;;;3.90;51.70;;;;;;5016081;28;20044;-64
2023/01/29 00:06:22;;;;;;;6.78;5.72;;;3.90;45.00;;;;;;5008989;28;20037;-65
2023/01/29 00:08:48;;;;;;;9.23;6.35;;;3.90;34.30;;;;;;5016270;28;20507;-64
2023/01/29 00:11:15;;;;;;;9.38;5.95;;;3.90;19.90;;;;;;5025803;28;20545;-65
2023/01/29 00:13:41;;;;;;;9.48;6.13;;;4.00;12.70;;;;;;5017693;28;20045;-65
2023/01/29 00:16:08;;;;;;;8.02;6.10;;;4.00;15.90;;;;;;5019028;28;20048;-65
2023/01/29 00:18:37;;;;;;;7.60;6.72;;;3.90;27.20;;;;;;5024961;28;20041;-64
2023/01/29 00:21:07;;;;;;;7.90;6.05;;;3.90;10.00;;;;;;5016773;28;20056;-63
2023/01/29 00:23:33;;;;;;;8.73;6.65;;;3.90;1.00;;;;;;5001974;28;20111;-64
2023/01/29 00:25:59;;;;;;;9.38;6.63;;;3.90;11.60;;;;;;5016091;28;20121;-65
2023/01/29 00:28:25;;;;;;;9.70;6.80;;;3.90;13.30;;;;;;5001922;28;20698;-65
2023/01/29 00:30:50;;;;;;;10.27;6.78;;;3.90;11.10;;;;;;4983761;28;20052;-65
2023/01/29 00:33:16;;;;;;;9.20;6.93;;;3.90;24.00;;;;;;5015878;28;20041;-65
2023/01/29 00:35:42;;;;;;;13.13;7.45;;;3.90;30.90;;;;;;4998881;28;20590;-64
2023/01/29 00:38:08;;;;;;;11.05;7.40;;;3.90;33.10;;;;;;5002273;28;20041;-65
2023/01/29 00:44:56;;;;;;;12.13;7.78;;;3.90;26.90;;;;;;5018004;28;20060;-65
2023/01/29 00:46:07;;;;;;;11.60;7.45;;;3.90;19.10;;;;;;5018471;28;20053;-65
2023/01/29 00:48:34;;;;;;;10.57;7.32;;;3.90;16.70;;;;;;5019241;28;20041;-65
2023/01/29 00:51:00;;;;;;;11.77;7.95;;;3.90;11.20;;;;;;5025260;28;20466;-65
2023/01/29 00:53:27;;;;;;;12.20;8.50;;;3.90;15.60;;;;;;5003825;28;20464;-65
2023/01/29 00:55:52;;;;;;;12.63;8.50;;;3.90;20.20;;;;;;5025450;28;20484;-64
2023/01/29 00:58:21;;;;;;;10.75;7.80;;;3.90;13.10;;;;;;5009901;28;20061;-64
2023/01/29 01:00:50;;;;;;;9.68;7.93;;;3.90;21.90;;;;;;5016962;28;20422;-64
2023/01/29 01:03:16;;;;;;;11.60;8.20;;;3.90;11.10;;;;;;5016119;28;20041;-65
2023/01/29 01:05:42;;;;;;;12.82;8.25;;;3.90;20.80;;;;;;4991436;28;20622;-65
2023/01/29 01:11:04;;;;;;;13.63;9.10;;;3.90;38.40;;;;;;4990322;28;20647;-65
2023/01/29 01:13:32;;;;;;;11.85;8.85;;;3.90;33.90;;;;;;5017329;28;20061;-65
2023/01/29 01:15:58;;;;;;;11.38;9.20;;;3.90;35.30;;;;;;5030130;28;20430;-64
2023/01/29 01:18:24;;;;;;;11.75;9.27;;;3.90;39.00;;;;;;5009402;28;20026;-65
2023/01/29 01:20:58;;;;;;;12.88;8.93;;;3.90;34.80;;;;;;5013801;28;20486;-64
2023/01/29 01:23:24;;;;;;;14.23;9.48;;;3.90;42.10;;;;;;5020105;28;20475;-65
2023/01/29 01:25:50;;;;;;;13.80;10.57;;;3.80;52.10;;;;;;5004212;28;20073;-65
2023/01/29 01:28:16;;;;;;;13.63;10.73;;;3.80;60.30;;;;;;5020888;28;20152;-65
2023/01/29 01:30:41;;;;;;;14.13;10.35;;;3.80;63.40;;;;;;5018860;28;20040;-65
2023/01/29 01:33:07;;;;;;;14.82;10.40;;;3.80;77.20;;;;;;5019320;28;20110;-65
2023/01/29 01:35:33;;;;;;;17.52;11.20;;;3.80;75.30;;;;;;5019857;28;20125;-64
2023/01/29 01:37:59;;;;;;;14.18;10.68;;;3.80;76.50;;;;;;5005466;28;20045;-65
2023/01/29 01:40:25;;;;;;;17.23;11.68;;;3.90;75.90;;;;;;5020350;28;20771;-64
2023/01/29 01:42:54;;;;;;;16.17;11.23;;;3.90;88.30;;;;;;5020933;28;20506;-64
2023/01/29 01:45:34;;;;;;;17.35;11.80;;;3.90;86.20;;;;;;5000444;28;20045;-64
2023/01/29 01:48:11;;;;;;;16.25;11.77;;;3.90;89.40;;;;;;5019335;28;20049;-64
2023/01/29 01:51:02;;;;;;;15.20;11.57;;;3.80;97.60;;;;;;5019720;28;20131;-65
2023/01/29 01:53:36;;;;;;;17.23;11.30;;;3.90;98.60;;;;;;5023027;28;20051;-64
2023/01/29 01:56:06;;;;;;;17.75;12.52;;;3.90;99.90;;;;;;5019074;28;20045;-65
2023/01/29 01:58:42;;;;;;;18.88;11.38;;;3.80;99.90;;;;;;5019856;28;20116;-63
2023/01/29 02:01:09;;;;;;;19.30;11.90;;;3.80;99.90;;;;;;5020909;28;20045;-64
2023/01/29 02:12:01;;;;;;;16.55;11.70;;;3.90;99.90;;;;;;5019524;28;20298;-65
2023/01/29 02:14:27;;;;;;;15.32;12.05;;;3.80;99.90;;;;;;5020946;28;20044;-65
2023/01/29 02:16:53;;;;;;;17.52;12.15;;;3.90;99.90;;;;;;5010644;28;20045;-64
2023/01/29 02:19:27;;;;;;;19.33;12.60;;;3.80;99.90;;;;;;5018600;28;20161;-65
2023/01/29 02:22:01;;;;;;;17.15;13.23;;;3.90;99.90;;;;;;5023937;28;20270;-64
2023/01/29 02:24:42;;;;;;;16.52;13.02;;;3.80;99.90;;;;;;5000728;28;20527;-65
2023/01/29 02:27:13;;;;;;;18.95;12.70;;;3.80;99.90;;;;;;5020614;28;20047;-64
2023/01/29 02:30:05;;;;;;;18.63;13.65;;;3.80;99.90;;;;;;5017842;28;20037;-64
2023/01/29 02:32:53;;;;;;;18.17;13.27;;;3.80;99.90;;;;;;5018747;28;20387;-65
2023/01/29 02:35:31;;;;;;;20.45;13.77;;;3.80;99.90;;;;;;5020678;28;20523;-64
2023/01/29 02:38:16;;;;;;;21.40;14.73;;;3.80;99.90;;;;;;5004138;28;20041;-65
2023/01/29 02:41:04;;;;;;;19.60;14.15;;;3.80;99.90;;;;;;5019221;28;20628;-65
2023/01/29 02:43:53;;;;;;;20.40;14.73;;;3.80;99.90;;;;;;5002540;28;20585;-65
2023/01/29 02:46:32;;;;;;;23.48;15.57;;;3.80;99.90;;;;;;5014838;28;20041;-65
2023/01/29 02:49:07;;;;;;;18.48;14.23;;;3.80;99.90;;;;;;5021018;28;20381;-64
2023/01/29 02:51:40;;;;;;;19.98;15.57;;;3.80;99.90;;;;;;5020531;28;20036;-64
2023/01/29 02:54:18;;;;;;;21.75;15.52;;;3.80;99.90;;;;;;5021388;28;20073;-64
2023/01/29 02:56:58;;;;;;;20.83;15.13;;;3.80;99.90;;;;;;5004172;28;20037;-64
2023/01/29 02:59:42;;;;;;;22.33;15.68;;;3.80;99.90;;;;;;4996854;28;20052;-64
2023/01/29 03:02:12;;;;;;;23.35;17.13;;;3.70;99.90;;;;;;5021894;28;20499;-65
2023/01/29 03:04:52;;;;;;;23.63;17.08;;;3.70;99.90;;;;;;5000996;28;20045;-65
2023/01/29 03:10:18;;;;;;;23.17;16.63;;;3.70;99.90;;;;;;5018600;28;20049;-64
2023/01/29 03:12:54;;;;;;;25.90;18.20;;;3.70;99.90;;;;;;5017762;28;20045;-64
2023/01/29 03:15:27;;;;;;;26.75;17.90;;;3.70;99.90;;;;;;5018213;28;20051;-64
2023/01/29 03:18:05;;;;;;;26.25;18.90;;;3.70;99.90;;;;;;5017484;28;20081;-64
2023/01/29 03:20:46;;;;;;;26.77;19.33;;;3.70;99.90;;;;;;5018652;28;20587;-64
2023/01/29 03:32:03;;;;;;;30.23;19.83;;;3.70;99.90;;;;;;5018932;28;20251;-64
2023/01/29 03:34:33;;;;;;;29.83;21.50;;;3.80;99.90;;;;;;5020135;28;20495;-65
2023/01/29 03:37:06;;;;;;;31.08;21.67;;;3.80;99.90;;;;;;5019664;28;20044;-63
2023/01/29 03:39:33;;;;;;;30.25;20.77;;;3.80;99.90;;;;;;5019373;28;20045;-64
2023/01/29 03:42:13;;;;;;;34.47;22.42;;;3.80;99.90;;;;;;5000505;28;20360;-64
2023/01/29 03:45:08;;;;;;;33.65;22.55;;;3.80;99.90;;;;;;5019672;28;20041;-65
2023/01/29 03:48:13;;;;;;;31.20;22.42;;;3.80;99.90;;;;;;5027172;28;20188;-64
2023/01/29 03:50:47;;;;;;;;;;;3.80;99.90;;;;;;5019331;28;20387;-65
2023/01/29 03:53:30;;;;;;;35.03;24.50;;;3.80;99.90;;;;;;5015947;28;20449;-65
2023/01/29 03:56:14;;;;;;;31.85;23.33;;;3.80;99.90;;;;;;5016895;28;20369;-65
2023/01/29 03:58:43;;;;;;;30.83;24.33;;;3.80;99.90;;;;;;5015635;28;20040;-65
2023/01/29 04:01:24;;;;;;;34.85;26.77;;;3.80;99.90;;;;;;5020470;28;20550;-66
2023/01/29 04:04:00;;;;;;;33.88;25.27;;;3.80;99.90;;;;;;5016602;28;20364;-65
2023/01/29 04:06:30;;;;;;;37.60;27.10;;;3.80;99.90;;;;;;5017567;28;20232;-65
2023/01/29 04:09:05;;;;;;;40.95;26.13;;;3.80;99.90;;;;;;5016987;28;20384;-66
2023/01/29 04:11:34;;;;;;;42.17;28.83;;;3.80;99.90;;;;;;5019248;28;20864;-65
2023/01/29 04:14:01;;;;;;;42.10;29.25;;;3.80;99.90;;;;;;5021277;28;20307;-64
2023/01/29 04:16:39;;;;;;;39.55;28.80;;;3.80;99.90;;;;;;5003364;28;20048;-65
2023/01/29 04:19:06;;;;;;;40.30;29.67;;;3.80;99.90;;;;;;5016484;28;20077;-65
2023/01/29 04:21:33;;;;;;;43.10;28.75;;;3.80;99.90;;;;;;5018934;28;20143;-64
2023/01/29 04:23:59;;;;;;;41.17;30.17;;;3.70;99.90;;;;;;5001057;28;20365;-63
2023/01/29 04:26:45;;;;;;;44.75;28.85;;;3.80;99.90;;;;;;5017545;28;20049;-66
2023/01/29 04:29:22;;;;;;;43.95;32.22;;;3.80;99.90;;;;;;5018628;28;20040;-65
2023/01/29 04:31:59;;;;;;;46.28;30.75;;;3.80;99.90;;;;;;5019295;28;20525;-65
2023/01/29 04:34:50;;;;;;;47.67;31.67;;;3.80;99.90;;;;;;5001142;28;20038;-65
2023/01/29 04:37:28;;;;;;;45.17;29.55;;;3.80;99.90;;;;;;5017334;28;20497;-65
2023/01/29 04:40:13;;;;;;;46.15;32.50;;;3.80;99.90;;;;;;5016902;28;20447;-65
2023/01/29 04:43:05;;;;;;;50.33;34.00;;;3.70;99.90;;;;;;4998191;28;20594;-64
2023/01/29 04:45:54;;;;;;;54.88;36.33;;;3.80;99.90;;;;;;5015161;28;20119;-64
2023/01/29 04:48:29;;;;;;;57.65;37.17;;;3.80;1.00;;;;;;5016569;28;20183;-64
2023/01/29 04:51:11;;;;;;;61.83;37.92;;;3.70;1.00;;;;;;5015885;28;20230;-64
2023/01/29 04:53:51;;;;;;;67.22;40.28;;;3.80;1.00;;;;;;4998397;28;20519;-66
2023/01/29 04:56:22;;;;;;;73.63;42.30;;;3.70;1.00;;;;;;5015565;28;20056;-64
2023/01/29 04:58:56;;;;;;;81.53;44.10;;;3.70;1.00;;;;;;5020285;28;20051;-66
2023/01/29 05:01:24;;;;;;;72.32;39.67;;;3.70;1.00;;;;;;5031575;28;20090;-66
2023/01/29 05:03:54;;;;;;;87.10;45.38;;;3.70;1.00;;;;;;5021194;28;20044;-64
2023/01/29 05:06:21;;;;;;;87.80;47.60;;;3.70;1.00;;;;;;5021686;28;20452;-65
2023/01/29 05:08:50;;;;;;;79.78;44.42;;;3.70;72.50;;;;;;5020947;28;20326;-66
2023/01/29 05:11:24;;;;;;;92.22;47.70;;;3.70;99.90;;;;;;5039044;28;20041;-64
2023/01/29 05:13:50;;;;;;;91.82;47.28;;;3.70;99.90;;;;;;5020909;28;20076;-62
2023/01/29 05:16:27;;;;;;;77.35;43.28;;;3.60;99.90;;;;;;5019527;28;20049;-63
2023/01/29 05:18:53;;;;;;;84.85;42.00;;;3.60;99.90;;;;;;5021432;28;20037;-63
2023/01/29 05:21:21;;;;;;;88.47;45.08;;;3.60;99.90;;;;;;5029190;28;20140;-64
2023/01/29 05:24:15;;;;;;;94.15;48.08;;;3.70;99.90;;;;;;5023414;28;20038;-63
2023/01/29 05:29:28;;;;;;;95.70;46.88;;;3.60;99.90;;;;;;5024343;28;20124;-63
2023/01/29 05:31:53;;;;;;;89.32;44.47;;;3.60;99.90;;;;;;5018806;28;20427;-64
2023/01/29 05:34:19;;;;;;;92.03;45.17;;;3.60;99.90;;;;;;5022528;28;20045;-63
2023/01/29 05:36:45;;;;;;;92.20;45.78;;;3.50;99.90;;;;;;5005023;28;20045;-64
2023/01/29 05:39:11;;;;;;;99.60;47.85;;;3.60;99.90;;;;;;5018262;28;20033;-63
2023/01/29 05:41:36;;;;;;;94.75;45.72;;;3.60;99.90;;;;;;5004595;28;20108;-63
2023/01/29 05:44:02;;;;;;;85.70;45.83;;;3.50;99.90;;;;;;5024606;28;20594;-64
2023/01/29 05:46:28;;;;;;;87.45;44.53;;;3.50;99.90;;;;;;5004173;28;20491;-63
2023/01/29 05:48:53;;;;;;;82.88;44.65;;;3.50;99.90;;;;;;5023353;28;20467;-63
2023/01/29 05:51:19;;;;;;;79.82;43.20;;;3.60;99.90;;;;;;5028982;28;20112;-63
2023/01/29 05:53:45;;;;;;;87.00;44.22;;;3.60;99.90;;;;;;5019118;28;20037;-64
2023/01/29 05:56:11;;;;;;;78.05;43.60;;;3.50;99.90;;;;;;5020585;28;20096;-64
2023/01/29 05:58:37;;;;;;;82.28;44.88;;;3.50;99.90;;;;;;5020695;28;20037;-65
2023/01/29 06:01:10;;;;;;;68.38;39.70;;;3.50;99.90;;;;;;5019217;28;20053;-65
2023/01/29 06:03:35;;;;;;;77.28;43.22;;;3.60;99.90;;;;;;5017403;28;20034;-66
2023/01/29 06:06:01;;;;;;;73.40;39.00;;;3.50;99.90;;;;;;5004592;28;20311;-66
2023/01/29 06:08:27;;;;;;;77.57;40.17;;;3.50;99.90;;;;;;5016615;28;20395;-66
2023/01/29 06:10:53;;;;;;;79.00;42.28;;;3.50;99.90;;;;;;5021164;28;20113;-64
2023/01/29 06:13:19;;;;;;;68.90;36.30;;;3.50;99.90;;;;;;5019021;28;20865;-64
2023/01/29 06:15:44;;;;;;;82.68;43.38;;;3.50;99.90;;;;;;5004050;28;20048;-65
2023/01/29 06:18:10;;;;;;;82.28;41.15;;;3.60;99.90;;;;;;5018642;28;20088;-65
2023/01/29 06:20:36;;;;;;;86.32;44.15;;;3.50;99.90;;;;;;5022036;28;20063;-66
2023/01/29 06:23:02;;;;;;;81.88;43.45;;;3.50;99.90;;;;;;5010198;28;20215;-65
2023/01/29 06:25:27;;;;;;;85.88;43.47;;;3.50;99.90;;;;;;5001551;28;20063;-64
2023/01/29 06:27:53;;;;;;;77.68;38.90;;;3.60;99.90;;;;;;5027631;28;20049;-65
2023/01/29 06:30:19;;;;;;;80.57;41.65;;;3.50;99.90;;;;;;5027577;28;20732;-64
2023/01/29 06:32:45;;;;;;;71.20;39.90;;;3.40;99.90;;;;;;5001957;28;20037;-63
2023/01/29 06:35:10;;;;;;;78.75;42.70;;;3.50;99.90;;;;;;5022640;28;20502;-64
2023/01/29 06:37:37;;;;;;;65.63;37.55;;;3.50;99.90;;;;;;5027608;28;20056;-64
2023/01/29 06:40:03;;;;;;;60.55;34.33;;;3.60;99.90;;;;;;5019790;28;20045;-64
2023/01/29 06:42:29;;;;;;;62.20;37.83;;;3.50;99.90;;;;;;5001966;28;20305;-64
2023/01/29 06:44:55;;;;;;;61.72;37.20;;;3.50;99.90;;;;;;5018657;28;20515;-64
2023/01/29 06:47:21;;;;;;;62.72;36.25;;;3.60;99.90;;;;;;5011339;28;20048;-64
2023/01/29 06:49:47;;;;;;;67.65;40.25;;;3.50;99.90;;;;;;5017383;28;20048;-64
2023/01/29 06:52:12;;;;;;;62.40;38.28;;;3.50;99.90;;;;;;5002025;28;20056;-64
2023/01/29 06:54:38;;;;;;;59.30;39.30;;;3.60;99.90;;;;;;5019215;28;20080;-64
2023/01/29 06:57:04;;;;;;;56.42;37.30;;;3.50;99.90;;;;;;5021972;28;20040;-64
2023/01/29 06:59:29;;;;;;;55.60;38.75;;;3.60;99.90;;;;;;5018983;28;20051;-64
2023/01/29 07:01:55;;;;;;;55.53;38.53;;;3.50;99.90;;;;;;5010763;28;20033;-65
2023/01/29 07:04:21;;;;;;;52.67;36.53;;;3.60;99.90;;;;;;5018629;28;20110;-65
2023/01/29 07:06:46;;;;;;;54.40;35.72;;;3.50;99.90;;;;;;5018074;28;20163;-65
2023/01/29 07:09:12;;;;;;;60.25;37.78;;;3.60;99.90;;;;;;5020573;28;20065;-65
2023/01/29 07:11:39;;;;;;;56.78;36.03;;;3.60;99.90;;;;;;5017773;28;20041;-66
2023/01/29 07:14:05;;;;;;;62.20;39.47;;;3.50;99.90;;;;;;5019427;28;20483;-64
2023/01/29 07:16:31;;;;;;;59.83;41.25;;;3.60;99.90;;;;;;5002906;28;20045;-65
2023/01/29 07:18:57;;;;;;;60.63;41.33;;;3.60;99.90;;;;;;5017727;28;20044;-65
2023/01/29 07:21:23;;;;;;;59.85;39.22;;;3.60;99.90;;;;;;5017392;28;20258;-65
2023/01/29 07:23:49;;;;;;;62.38;42.25;;;3.60;99.90;;;;;;5018653;28;20048;-65
2023/01/29 07:26:15;;;;;;;60.53;40.55;;;3.70;99.90;;;;;;5017942;28;20410;-67
2023/01/29 07:28:41;;;;;;;64.10;41.78;;;3.70;99.90;;;;;;5010251;28;20045;-66
2023/01/29 07:31:10;;;;;;;65.45;44.78;;;3.70;99.90;;;;;;5017890;28;20054;-64
2023/01/29 07:33:35;;;;;;;61.35;41.80;;;3.70;99.90;;;;;;5016934;28;20049;-66
2023/01/29 07:36:05;;;;;;;60.80;41.30;;;3.70;99.90;;;;;;5016861;28;20037;-66
2023/01/29 07:38:31;;;;;;;60.20;41.50;;;3.70;99.90;;;;;;5019273;28;20333;-66
2023/01/29 07:40:57;;;;;;;64.38;43.83;;;3.80;99.90;;;;;;5020078;28;20487;-66
2023/01/29 07:43:23;;;;;;;66.35;44.72;;;3.80;99.90;;;;;;5020956;28;20316;-65
2023/01/29 07:45:49;;;;;;;62.15;43.55;;;3.80;99.90;;;;;;5017562;28;20203;-65
2023/01/29 07:48:15;;;;;;;60.83;40.97;;;3.90;99.90;;;;;;5019399;28;20041;-65
2023/01/29 07:50:42;;;;;;;63.17;44.22;;;3.90;99.90;;;;;;5015050;28;20104;-64
2023/01/29 07:53:15;;;;;;;60.17;43.00;;;3.90;99.90;;;;;;5018294;28;20521;-64
2023/01/29 07:55:43;;;;;;;53.95;38.97;;;3.90;99.90;;;;;;5020576;28;20064;-65
2023/01/29 07:58:09;;;;;;;57.63;40.47;;;4.00;99.90;;;;;;5020433;28;20052;-65
2023/01/29 08:00:35;;;;;;;56.05;42.25;;;4.00;99.90;;;;;;5019073;28;20041;-65
2023/01/29 08:03:10;;;;;;;52.03;38.67;;;4.00;99.90;;;;;;5019004;28;20414;-65
2023/01/29 08:05:36;;;;;;;54.17;42.00;;;4.00;99.90;;;;;;5022747;28;20896;-65
2023/01/29 08:08:03;;;;;;;56.67;43.03;;;4.00;99.90;;;;;;5017154;28;20366;-65
2023/01/29 08:10:30;;;;;;;57.45;42.45;;;4.00;99.90;;;;;;5016020;28;20414;-65
2023/01/29 08:12:57;;;;;;;55.90;42.90;;;4.10;99.90;;;;;;5017214;28;20048;-66
2023/01/29 08:15:24;;;;;;;57.03;42.22;;;4.00;99.90;;;;;;5019163;28;20414;-65
2023/01/29 08:17:51;;;;;;;44.92;33.95;;;4.00;99.90;;;;;;5013944;28;20141;-64
2023/01/29 08:20:17;;;;;;;53.97;42.75;;;4.10;99.90;;;;;;5018180;28;20285;-63
2023/01/29 08:22:43;;;;;;;57.28;43.30;;;4.10;99.90;;;;;;5022520;28;20037;-63
2023/01/29 08:25:09;;;;;;;49.78;36.60;;;4.10;99.90;;;;;;4999343;28;20052;-64
2023/01/29 08:27:35;;;;;;;54.03;41.13;;;4.10;99.90;;;;;;5014733;28;20087;-64
2023/01/29 08:30:00;;;;;;;57.53;43.10;;;4.10;99.90;;;;;;5014384;28;20225;-63
2023/01/29 08:32:26;;;;;;;63.40;47.30;;;4.20;99.90;;;;;;5014074;28;20056;-63
2023/01/29 08:34:52;;;;;;;63.63;46.83;;;4.10;99.90;;;;;;5015714;28;20045;-63
2023/01/29 08:37:17;;;;;;;58.65;45.30;;;4.10;99.90;;;;;;5016895;28;20041;-65
2023/01/29 08:39:43;;;;;;;62.45;46.83;;;4.20;99.90;;;;;;5015077;28;20164;-65
2023/01/29 08:42:09;;;;;;;63.45;46.30;;;4.20;99.90;;;;;;5014404;28;20478;-64
2023/01/29 08:44:35;;;;;;;65.53;47.03;;;4.20;99.20;;;;;;5017377;28;20040;-63
2023/01/29 08:47:01;;;;;;;59.90;44.65;;;4.20;73.50;;;;;;5015918;28;20194;-65
2023/01/29 08:49:27;;;;;;;51.33;39.70;;;4.20;66.60;;;;;;5008420;28;20076;-64
2023/01/29 08:51:55;;;;;;;54.60;42.80;;;4.30;25.40;;;;;;5016401;28;20136;-65
2023/01/29 08:54:22;;;;;;;57.47;45.25;;;4.40;4.50;;;;;;5015606;28;20446;-64
2023/01/29 08:56:47;;;;;;;59.08;43.65;;;4.30;9.70;;;;;;5015362;28;20049;-62
2023/01/29 08:59:13;;;;;;;64.65;47.90;;;4.30;1.20;;;;;;5013024;28;20056;-64
2023/01/29 09:01:39;;;;;;;68.20;48.42;;;4.20;1.00;;;;;;5016133;28;20047;-64
2023/01/29 09:04:04;;;;;;;61.25;47.10;;;4.20;13.30;;;;;;5009701;28;20577;-64
2023/01/29 09:06:30;;;;;;;66.40;47.85;;;4.20;24.90;;;;;;5023484;28;20206;-63
2023/01/29 09:08:56;;;;;;;66.07;49.03;;;4.20;51.60;;;;;;5016229;28;20073;-64
2023/01/29 09:11:22;;;;;;;67.28;48.78;;;4.20;52.20;;;;;;5010304;28;20390;-63
2023/01/29 09:13:47;;;;;;;66.20;49.05;;;4.20;75.20;;;;;;5022400;28;20072;-63
2023/01/29 09:16:14;;;;;;;60.28;45.67;;;4.20;85.10;;;;;;4995599;28;20041;-63
2023/01/29 09:18:40;;;;;;;69.97;50.22;;;4.30;96.30;;;;;;4979959;28;20186;-64
2023/01/29 09:21:05;;;;;;;68.35;47.42;;;4.30;99.90;;;;;;5019322;28;20083;-64
2023/01/29 09:23:31;;;;;;;69.00;52.58;;;4.30;68.30;;;;;;5022253;28;20563;-65
2023/01/29 09:25:57;;;;;;;46.00;33.83;;;4.40;90.60;;;;;;4998410;28;20045;-63
2023/01/29 09:28:23;;;;;;;73.18;52.17;;;4.30;91.10;;;;;;5012308;28;20135;-63
2023/01/29 09:30:49;;;;;;;70.43;51.92;;;4.40;92.10;;;;;;5001157;28;20051;-63
2023/01/29 09:33:15;;;;;;;62.65;48.05;;;4.40;98.00;;;;;;5022189;28;20107;-63
2023/01/29 09:35:42;;;;;;;69.47;52.67;;;4.40;97.20;;;;;;5015297;28;20033;-63
2023/01/29 09:38:10;;;;;;;70.20;51.13;;;4.40;99.90;;;;;;5014935;28;20051;-63
2023/01/29 09:41:06;;;;;;;70.53;51.03;;;4.40;99.90;;;;;;5011670;28;20219;-62
2023/01/29 09:43:35;;;;;;;65.03;49.03;;;4.50;98.30;;;;;;5015269;28;20076;-63
2023/01/29 09:46:12;;;;;;;67.65;51.53;;;4.50;99.90;;;;;;5018172;28;20057;-63
2023/01/29 09:48:38;;;;;;;60.78;47.85;;;4.50;99.90;;;;;;5021187;28;20053;-63
2023/01/29 09:51:11;;;;;;;64.97;46.70;;;4.60;99.90;;;;;;5024819;28;20071;-64
2023/01/29 09:53:48;;;;;;;60.92;45.45;;;4.60;99.90;;;;;;5005235;28;20566;-64
2023/01/29 09:56:20;;;;;;;63.40;46.20;;;4.60;99.90;;;;;;5020318;28;20045;-63
2023/01/29 09:58:46;;;;;;;59.83;45.85;;;4.60;88.40;;;;;;5001393;28;20049;-63
2023/01/29 10:01:15;;;;;;;58.83;42.97;;;4.60;59.90;;;;;;5021015;28;20036;-64
2023/01/29 10:04:11;;;;;;;58.28;45.13;;;4.60;39.00;;;;;;5023188;28;20416;-64
2023/01/29 10:06:56;;;;;;;58.92;44.20;;;4.60;1.00;;;;;;5019737;28;20523;-64
2023/01/29 10:09:49;;;;;;;51.90;37.78;;;4.60;1.00;;;;;;5013321;28;20693;-63
2023/01/29 10:12:25;;;;;;;59.67;43.42;;;4.70;1.00;;;;;;5017819;28;20289;-63
2023/01/29 10:14:57;;;;;;;66.15;46.28;;;4.70;1.00;;;;;;4999005;28;20568;-64
2023/01/29 10:18:04;;;;;;;66.72;49.75;;;4.70;1.00;;;;;;4996973;28;20034;-64
2023/01/29 10:20:56;;;;;;;66.78;47.85;;;4.60;1.00;;;;;;5017058;28;20047;-64
2023/01/29 10:23:42;;;;;;;51.33;36.47;;;4.70;1.00;;;;;;5020715;28;20048;-65
2023/01/29 10:26:12;;;;;;;62.78;43.15;;;4.70;1.00;;;;;;5022167;28;20248;-63
2023/01/29 10:28:45;;;;;;;72.03;50.10;;;4.60;3.40;;;;;;5019474;28;20037;-63
2023/01/29 10:31:26;;;;;;;70.93;48.60;;;4.60;4.80;;;;;;5016988;28;20278;-63
2023/01/29 10:34:09;;;;;;;70.03;49.50;;;4.70;50.40;;;;;;5014144;28;20040;-65
2023/01/29 10:36:37;;;;;;;67.60;48.05;;;4.70;66.90;;;;;;5017572;28;20096;-63
2023/01/29 10:39:03;;;;;;;57.13;39.95;;;4.80;42.80;;;;;;5017750;28;20499;-64
2023/01/29 10:42:07;;;;;;;62.53;44.40;;;4.90;80.20;;;;;;5015600;28;20063;-66
2023/01/29 10:45:11;;;;;;;59.67;42.17;;;4.90;34.00;;;;;;5027404;28;20037;-63
2023/01/29 10:48:05;;;;;;;61.30;41.97;;;4.90;19.00;;;;;;5026240;28;20522;-64
2023/01/29 10:50:42;;;;;;;60.20;41.17;;;4.80;19.10;;;;;;5017533;28;20258;-64
2023/01/29 10:53:18;;;;;;;58.42;40.63;;;4.80;1.00;;;;;;5020176;28;20580;-65
2023/01/29 10:56:16;;;;;;;58.78;41.45;;;4.80;26.80;;;;;;5017014;28;20033;-66
2023/01/29 10:58:50;;;;;;;57.95;38.42;;;4.80;49.80;;;;;;5017223;28;20577;-65
2023/01/29 11:01:16;;;;;;;57.88;39.70;;;4.80;89.70;;;;;;5005787;28;20184;-65
2023/01/29 11:03:41;;;;;;;65.93;46.15;;;4.80;84.40;;;;;;5017443;28;20045;-65
2023/01/29 11:06:24;;;;;;;62.03;41.75;;;4.80;94.60;;;;;;5025010;28;20036;-65
2023/01/29 11:09:03;;;;;;;61.97;43.15;;;4.70;91.80;;;;;;5013215;28;20061;-64
2023/01/29 11:11:39;;;;;;;63.25;41.20;;;4.70;99.90;;;;;;5023229;28;20037;-65
2023/01/29 11:14:27;;;;;;;58.15;41.53;;;4.70;99.90;;;;;;5015014;28;20037;-64
2023/01/29 11:16:53;;;;;;;66.85;44.97;;;4.70;99.90;;;;;;5019185;28;20656;-65
2023/01/29 11:19:42;;;;;;;63.92;42.10;;;4.70;99.90;;;;;;5016207;28;20398;-63
2023/01/29 11:22:19;;;;;;;71.07;47.30;;;4.70;99.90;;;;;;5010642;28;20652;-63
2023/01/29 11:24:46;;;;;;;68.47;44.50;;;4.80;99.90;;;;;;5019078;28;20030;-62
2023/01/29 11:27:21;;;;;;;63.58;43.33;;;4.70;99.90;;;;;;4999124;28;20073;-63
2023/01/29 11:29:48;;;;;;;62.80;41.50;;;4.70;99.90;;;;;;5018052;28;20043;-63
2023/01/29 11:32:25;;;;;;;67.05;43.78;;;4.70;99.90;;;;;;4987412;28;20323;-62
2023/01/29 11:35:01;;;;;;;52.00;32.15;;;4.70;99.90;;;;;;5064445;28;20040;-63
2023/01/29 11:37:36;;;;;;;68.85;46.53;;;4.60;99.90;;;;;;5067062;28;21370;-64
2023/01/29 11:40:31;;;;;;;74.43;48.47;;;4.60;99.90;;;;;;5048793;28;20086;-64
2023/01/29 11:43:30;;;;;;;63.28;40.75;;;4.70;99.90;;;;;;5065347;28;20078;-64
2023/01/29 11:46:03;;;;;;;53.67;34.05;;;4.70;99.90;;;;;;5062139;28;20037;-64
2023/01/29 11:48:39;;;;;;;67.93;42.70;;;4.80;99.90;;;;;;5065573;28;20399;-65
2023/01/29 11:51:07;;;;;;;66.25;41.38;;;4.70;99.90;;;;;;5067199;28;20040;-64
2023/01/29 11:53:48;;;;;;;72.60;44.80;;;4.70;99.90;;;;;;5067654;28;20140;-66
2023/01/29 11:56:31;;;;;;;72.75;44.33;;;4.70;99.90;;;;;;5064016;28;20497;-66
2023/01/29 11:58:58;;;;;;;66.88;42.15;;;4.80;99.90;;;;;;5045804;28;20040;-64
2023/01/29 12:01:36;;;;;;;59.33;39.25;;;4.90;99.90;;;;;;5063885;28;20127;-65
2023/01/29 12:04:14;;;;;;;64.72;42.00;;;4.90;99.90;;;;;;5062008;28;20246;-63
2023/01/29 12:06:43;;;;;;;68.18;42.28;;;4.90;99.90;;;;;;5063871;28;20098;-63
2023/01/29 12:09:16;;;;;;;62.20;39.85;;;5.00;99.90;;;;;;5048046;28;20383;-63
2023/01/29 12:11:42;;;;;;;62.97;41.42;;;5.00;99.90;;;;;;5037195;28;20253;-62
2023/01/29 12:14:32;;;;;;;69.28;44.35;;;5.10;99.90;;;;;;5070742;28;20693;-63
2023/01/29 12:17:19;;;;;;;65.18;40.53;;;5.10;99.90;;;;;;5071054;28;20130;-63
2023/01/29 12:19:52;;;;;;;52.72;34.80;;;5.10;99.90;;;;;;5070722;28;20262;-64
2023/01/29 12:23:07;;;;;;;52.53;34.75;;;5.10;99.90;;;;;;5066329;28;20065;-61
2023/01/29 12:26:12;;;;;;;56.03;38.38;;;5.00;99.90;;;;;;5019573;28;20423;-62
2023/01/29 12:28:47;;;;;;;53.65;35.95;;;5.10;99.90;;;;;;4989193;28;20120;-63
2023/01/29 12:31:18;;;;;;;54.53;37.50;;;5.00;99.90;;;;;;5049739;28;20079;-62
2023/01/29 12:33:51;;;;;;;48.38;32.42;;;5.00;99.90;;;;;;5064711;28;20060;-63
2023/01/29 12:36:37;;;;;;;53.70;34.92;;;5.10;99.90;;;;;;5069128;28;20135;-63
2023/01/29 12:39:03;;;;;;;54.83;37.53;;;4.90;99.90;;;;;;5065389;28;20231;-62
2023/01/29 12:41:37;;;;;;;51.35;34.85;;;4.90;99.90;;;;;;5067188;28;20082;-62
2023/01/29 12:44:15;;;;;;;59.90;38.05;;;5.00;99.90;;;;;;5067558;28;20036;-63
2023/01/29 12:46:49;;;;;;;64.10;40.50;;;4.90;99.90;;;;;;5066788;28;20438;-62
2023/01/29 12:49:21;;;;;;;;;;;4.90;99.90;;;;;;5066386;28;20039;-63
2023/01/29 12:52:17;;;;;;;68.18;40.85;;;4.80;99.90;;;;;;5067545;28;20206;-63
2023/01/29 12:55:17;;;;;;;72.75;43.63;;;4.90;99.90;;;;;;5044425;28;20040;-63
2023/01/29 12:57:54;;;;;;;68.53;42.83;;;4.90;99.90;;;;;;5061564;28;20564;-64
2023/01/29 13:00:30;;;;;;;70.03;44.55;;;4.90;99.90;;;;;;5067688;28;20127;-63
2023/01/29 13:03:09;;;;;;;62.85;40.55;;;4.80;99.90;;;;;;5066461;28;20637;-64
2023/01/29 13:05:38;;;;;;;64.72;40.70;;;4.90;99.90;;;;;;5033611;28;20084;-65
2023/01/29 13:08:13;;;;;;;54.60;37.10;;;4.90;99.90;;;;;;5066846;28;20485;-64
2023/01/29 13:10:44;;;;;;;67.45;42.80;;;4.90;99.90;;;;;;5071532;28;20086;-64
2023/01/29 13:13:23;;;;;;;54.13;34.88;;;4.90;99.90;;;;;;5071422;28;20170;-64
2023/01/29 13:15:51;;;;;;;55.95;36.60;;;4.90;99.90;;;;;;5069381;28;20231;-64
2023/01/29 13:18:19;;;;;;;58.25;37.58;;;4.80;99.90;;;;;;5073958;28;20047;-65
2023/01/29 13:20:48;;;;;;;50.60;33.10;;;4.90;99.90;;;;;;5076744;28;20043;-64
2023/01/29 13:23:27;;;;;;;58.53;40.20;;;4.90;99.90;;;;;;5077159;28;20043;-65
2023/01/29 13:25:53;;;;;;;53.42;35.75;;;4.90;99.90;;;;;;5058320;28;20089;-66
2023/01/29 13:28:22;;;;;;;61.80;41.40;;;4.90;99.90;;;;;;5075375;28;20510;-65
2023/01/29 13:31:26;;;;;;;66.25;41.75;;;4.90;99.90;;;;;;5076304;28;20128;-65
2023/01/29 13:34:11;;;;;;;;;;;5.00;99.90;;;;;;5072854;28;20039;-66
2023/01/29 13:36:41;;;;;;;;;;;4.90;99.90;;;;;;5053820;28;19920;-65